sensor_id;sensor_type;location;lat;lon;timestamp;pressure;altitude;pressure_sealevel;temperature;humidity
7832;BME280;3961;42.058;25.586;2023-11-19T00:00:40;99965.84;;;7.55;96.04
7832;BME280;3961;42.058;25.586;2023-11-19T00:03:05;99964.75;;;7.56;95.24
7832;BME280;3961;42.058;25.586;2023-11-19T00:05:31;99962.28;;;7.55;96.23
7832;BME280;3961;42.058;25.586;2023-11-19T00:07:57;99975.22;;;7.59;95.94
7832;BME280;3961;42.058;25.586;2023-11-19T00:10:22;99976.91;;;7.60;96.38
7832;BME280;3961;42.058;25.586;2023-11-19T00:12:48;99978.56;;;7.61;96.82
7832;BME280;3961;42.058;25.586;2023-11-19T00:15:16;99988.16;;;7.64;95.91
7832;BME280;3961;42.058;25.586;2023-11-19T00:17:47;99971.63;;;7.39;96.45
7832;BME280;3961;42.058;25.586;2023-11-19T00:20:15;99993.13;;;7.47;97.03
7832;BME280;3961;42.058;25.586;2023-11-19T00:22:42;99975.19;;;7.46;97.67
7832;BME280;3961;42.058;25.586;2023-11-19T00:25:08;99972.28;;;7.48;97.16
7832;BME280;3961;42.058;25.586;2023-11-19T00:27:35;99992.13;;;7.55;97.30
7832;BME280;3961;42.058;25.586;2023-11-19T00:30:01;99991.66;;;7.51;97.48
7832;BME280;3961;42.058;25.586;2023-11-19T00:32:27;99996.50;;;7.56;97.61
7832;BME280;3961;42.058;25.586;2023-11-19T00:34:52;100011.28;;;7.47;97.86
7832;BME280;3961;42.058;25.586;2023-11-19T00:37:17;100013.38;;;7.51;98.23
7832;BME280;3961;42.058;25.586;2023-11-19T00:39:43;100014.81;;;7.47;95.58
7832;BME280;3961;42.058;25.586;2023-11-19T00:42:09;100013.00;;;7.61;94.86
7832;BME280;3961;42.058;25.586;2023-11-19T00:44:36;100024.66;;;7.55;94.74
7832;BME280;3961;42.058;25.586;2023-11-19T00:47:01;100024.66;;;7.61;95.17
7832;BME280;3961;42.058;25.586;2023-11-19T00:49:27;100025.06;;;7.52;95.54
7832;BME280;3961;42.058;25.586;2023-11-19T00:51:53;100029.06;;;7.56;94.79
7832;BME280;3961;42.058;25.586;2023-11-19T00:54:18;100032.00;;;7.68;94.46
7832;BME280;3961;42.058;25.586;2023-11-19T00:56:44;100034.09;;;7.72;94.95
7832;BME280;3961;42.058;25.586;2023-11-19T00:59:10;100018.88;;;7.78;95.20
7832;BME280;3961;42.058;25.586;2023-11-19T01:01:36;100038.69;;;7.72;95.47
7832;BME280;3961;42.058;25.586;2023-11-19T01:04:01;100018.19;;;7.62;96.54
7832;BME280;3961;42.058;25.586;2023-11-19T01:06:28;100034.09;;;7.66;96.42
7832;BME280;3961;42.058;25.586;2023-11-19T01:08:54;100037.41;;;7.61;95.97
7832;BME280;3961;42.058;25.586;2023-11-19T01:11:21;100037.84;;;7.64;95.70
7832;BME280;3961;42.058;25.586;2023-11-19T01:13:47;100043.06;;;7.66;95.05
7832;BME280;3961;42.058;25.586;2023-11-19T01:16:13;100042.00;;;7.67;96.20
7832;BME280;3961;42.058;25.586;2023-11-19T01:18:38;100041.19;;;7.73;96.14
7832;BME280;3961;42.058;25.586;2023-11-19T01:21:04;100043.25;;;7.64;97.55
7832;BME280;3961;42.058;25.586;2023-11-19T01:23:30;100005.00;;;7.40;97.34
7832;BME280;3961;42.058;25.586;2023-11-19T01:25:56;100059.13;;;7.61;96.94
7832;BME280;3961;42.058;25.586;2023-11-19T01:28:21;100049.47;;;7.52;97.25
7832;BME280;3961;42.058;25.586;2023-11-19T01:30:47;100050.06;;;7.47;97.72
7832;BME280;3961;42.058;25.586;2023-11-19T01:33:12;100042.13;;;7.46;97.58
7832;BME280;3961;42.058;25.586;2023-11-19T01:35:38;100056.16;;;7.49;97.74
7832;BME280;3961;42.058;25.586;2023-11-19T01:38:03;100057.22;;;7.55;97.24
7832;BME280;3961;42.058;25.586;2023-11-19T01:40:29;100059.88;;;7.48;96.82
7832;BME280;3961;42.058;25.586;2023-11-19T01:42:54;100038.19;;;7.48;97.01
7832;BME280;3961;42.058;25.586;2023-11-19T01:45:27;100039.66;;;7.44;96.50
7832;BME280;3961;42.058;25.586;2023-11-19T01:47:57;100027.31;;;7.42;96.94
7832;BME280;3961;42.058;25.586;2023-11-19T01:50:24;100020.88;;;7.49;97.00
7832;BME280;3961;42.058;25.586;2023-11-19T01:52:52;100016.91;;;7.45;97.10
7832;BME280;3961;42.058;25.586;2023-11-19T01:55:20;100027.53;;;7.47;96.54
7832;BME280;3961;42.058;25.586;2023-11-19T01:57:46;100024.41;;;7.43;96.40
7832;BME280;3961;42.058;25.586;2023-11-19T02:00:12;100008.28;;;7.29;97.07
7832;BME280;3961;42.058;25.586;2023-11-19T02:02:43;100027.97;;;7.44;96.90
7832;BME280;3961;42.058;25.586;2023-11-19T02:05:10;100022.91;;;7.34;96.97
7832;BME280;3961;42.058;25.586;2023-11-19T02:07:36;100028.78;;;7.44;96.94
7832;BME280;3961;42.058;25.586;2023-11-19T02:10:02;100025.63;;;7.41;97.12
7832;BME280;3961;42.058;25.586;2023-11-19T02:12:28;100038.00;;;7.50;97.44
7832;BME280;3961;42.058;25.586;2023-11-19T02:14:54;100026.69;;;7.40;96.55
7832;BME280;3961;42.058;25.586;2023-11-19T02:17:26;100024.59;;;7.42;96.67
7832;BME280;3961;42.058;25.586;2023-11-19T02:19:52;100014.78;;;7.41;96.80
7832;BME280;3961;42.058;25.586;2023-11-19T02:22:18;100042.75;;;7.41;96.88
7832;BME280;3961;42.058;25.586;2023-11-19T02:24:45;100042.31;;;7.38;96.69
7832;BME280;3961;42.058;25.586;2023-11-19T02:27:16;100050.88;;;7.35;97.24
7832;BME280;3961;42.058;25.586;2023-11-19T02:29:45;100049.19;;;7.40;96.99
7832;BME280;3961;42.058;25.586;2023-11-19T02:32:11;100032.50;;;7.37;97.13
7832;BME280;3961;42.058;25.586;2023-11-19T02:34:39;100036.25;;;7.36;96.68
7832;BME280;3961;42.058;25.586;2023-11-19T02:37:04;100048.78;;;7.37;97.44
7832;BME280;3961;42.058;25.586;2023-11-19T02:39:30;100038.72;;;7.31;97.37
7832;BME280;3961;42.058;25.586;2023-11-19T02:41:55;100044.81;;;7.33;97.82
7832;BME280;3961;42.058;25.586;2023-11-19T02:44:21;100040.22;;;7.33;97.38
7832;BME280;3961;42.058;25.586;2023-11-19T02:46:46;100045.84;;;7.32;96.87
7832;BME280;3961;42.058;25.586;2023-11-19T02:49:14;100043.78;;;7.34;97.13
7832;BME280;3961;42.058;25.586;2023-11-19T02:51:40;100054.81;;;7.32;97.39
7832;BME280;3961;42.058;25.586;2023-11-19T02:54:06;100060.88;;;7.41;97.38
7832;BME280;3961;42.058;25.586;2023-11-19T02:56:31;100056.53;;;7.40;97.15
7832;BME280;3961;42.058;25.586;2023-11-19T02:59:01;100060.28;;;7.39;97.21
7832;BME280;3961;42.058;25.586;2023-11-19T03:01:37;100055.66;;;7.33;97.65
7832;BME280;3961;42.058;25.586;2023-11-19T03:04:02;100055.66;;;7.33;97.78
7832;BME280;3961;42.058;25.586;2023-11-19T03:06:29;100059.34;;;7.25;97.57
7832;BME280;3961;42.058;25.586;2023-11-19T03:08:55;100056.69;;;7.32;97.61
7832;BME280;3961;42.058;25.586;2023-11-19T03:11:21;100057.31;;;7.34;97.45
7832;BME280;3961;42.058;25.586;2023-11-19T03:13:46;100065.66;;;7.32;96.58
7832;BME280;3961;42.058;25.586;2023-11-19T03:16:12;100060.66;;;7.36;96.24
7832;BME280;3961;42.058;25.586;2023-11-19T03:18:39;100064.22;;;7.36;96.34
7832;BME280;3961;42.058;25.586;2023-11-19T03:21:07;100060.66;;;7.36;95.52
7832;BME280;3961;42.058;25.586;2023-11-19T03:23:33;100066.72;;;7.38;95.16
7832;BME280;3961;42.058;25.586;2023-11-19T03:25:59;100058.41;;;7.46;95.00
7832;BME280;3961;42.058;25.586;2023-11-19T03:28:29;100057.19;;;7.48;95.11
7832;BME280;3961;42.058;25.586;2023-11-19T03:30:54;100061.13;;;7.46;94.80
7832;BME280;3961;42.058;25.586;2023-11-19T03:33:20;100060.50;;;7.44;94.77
7832;BME280;3961;42.058;25.586;2023-11-19T03:35:46;100041.75;;;7.49;94.97
7832;BME280;3961;42.058;25.586;2023-11-19T03:38:11;100055.13;;;7.50;94.89
7832;BME280;3961;42.058;25.586;2023-11-19T03:40:37;100047.16;;;7.49;94.77
7832;BME280;3961;42.058;25.586;2023-11-19T03:43:04;100044.66;;;7.47;94.88
7832;BME280;3961;42.058;25.586;2023-11-19T03:45:29;100035.91;;;7.52;94.79
7832;BME280;3961;42.058;25.586;2023-11-19T03:47:55;100060.13;;;7.53;94.16
7832;BME280;3961;42.058;25.586;2023-11-19T03:50:20;100048.25;;;7.54;94.50
7832;BME280;3961;42.058;25.586;2023-11-19T03:52:47;100055.34;;;7.55;95.21
7832;BME280;3961;42.058;25.586;2023-11-19T03:55:12;100056.56;;;7.53;94.46
7832;BME280;3961;42.058;25.586;2023-11-19T03:57:38;100061.75;;;7.48;95.01
7832;BME280;3961;42.058;25.586;2023-11-19T04:00:04;100060.03;;;7.40;95.66
7832;BME280;3961;42.058;25.586;2023-11-19T04:02:39;100068.44;;;7.45;95.70
7832;BME280;3961;42.058;25.586;2023-11-19T04:05:05;100074.66;;;7.39;95.64
7832;BME280;3961;42.058;25.586;2023-11-19T04:07:32;100059.59;;;7.30;96.19
7832;BME280;3961;42.058;25.586;2023-11-19T04:09:58;100068.78;;;7.29;96.97
7832;BME280;3961;42.058;25.586;2023-11-19T04:12:23;100073.00;;;7.38;96.13
7832;BME280;3961;42.058;25.586;2023-11-19T04:14:49;100080.72;;;7.41;96.31
7832;BME280;3961;42.058;25.586;2023-11-19T04:17:14;100086.28;;;7.27;97.79
7832;BME280;3961;42.058;25.586;2023-11-19T04:19:40;100094.41;;;7.27;97.40
7832;BME280;3961;42.058;25.586;2023-11-19T04:22:07;100091.63;;;7.13;97.76
7832;BME280;3961;42.058;25.586;2023-11-19T04:24:34;100095.38;;;7.12;98.17
7832;BME280;3961;42.058;25.586;2023-11-19T04:27:00;100083.94;;;7.17;97.95
7832;BME280;3961;42.058;25.586;2023-11-19T04:29:25;100113.56;;;7.18;97.64
7832;BME280;3961;42.058;25.586;2023-11-19T04:31:51;100113.75;;;7.17;98.15
7832;BME280;3961;42.058;25.586;2023-11-19T04:34:16;100122.66;;;7.11;97.73
7832;BME280;3961;42.058;25.586;2023-11-19T04:36:42;100129.34;;;7.08;98.44
7832;BME280;3961;42.058;25.586;2023-11-19T04:39:09;100146.88;;;7.12;97.89
7832;BME280;3961;42.058;25.586;2023-11-19T04:41:49;100143.94;;;7.14;98.94
7832;BME280;3961;42.058;25.586;2023-11-19T04:44:16;100130.38;;;7.14;98.08
7832;BME280;3961;42.058;25.586;2023-11-19T04:46:42;100147.16;;;7.24;97.56
7832;BME280;3961;42.058;25.586;2023-11-19T04:49:09;100123.94;;;7.15;97.53
7832;BME280;3961;42.058;25.586;2023-11-19T04:51:41;100152.66;;;7.37;97.23
7832;BME280;3961;42.058;25.586;2023-11-19T04:54:08;100148.50;;;7.35;97.06
7832;BME280;3961;42.058;25.586;2023-11-19T04:56:34;100152.81;;;7.29;96.10
7832;BME280;3961;42.058;25.586;2023-11-19T04:59:01;100155.97;;;7.33;96.35
7832;BME280;3961;42.058;25.586;2023-11-19T05:01:27;100160.31;;;7.27;95.59
7832;BME280;3961;42.058;25.586;2023-11-19T05:03:53;100166.88;;;7.39;95.06
7832;BME280;3961;42.058;25.586;2023-11-19T05:06:18;100155.06;;;7.26;95.34
7832;BME280;3961;42.058;25.586;2023-11-19T05:08:44;100174.81;;;7.47;94.83
7832;BME280;3961;42.058;25.586;2023-11-19T05:11:10;100186.72;;;7.46;96.43
7832;BME280;3961;42.058;25.586;2023-11-19T05:13:38;100189.41;;;7.40;96.08
7832;BME280;3961;42.058;25.586;2023-11-19T05:16:04;100193.56;;;7.42;96.14
7832;BME280;3961;42.058;25.586;2023-11-19T05:18:29;100177.06;;;7.37;96.21
7832;BME280;3961;42.058;25.586;2023-11-19T05:20:55;100217.03;;;7.56;95.45
7832;BME280;3961;42.058;25.586;2023-11-19T05:23:21;100204.91;;;7.52;96.00
7832;BME280;3961;42.058;25.586;2023-11-19T05:25:46;100211.25;;;7.66;95.50
7832;BME280;3961;42.058;25.586;2023-11-19T05:28:13;100203.88;;;7.53;95.06
7832;BME280;3961;42.058;25.586;2023-11-19T05:30:39;100216.59;;;7.53;95.44
7832;BME280;3961;42.058;25.586;2023-11-19T05:33:05;100213.41;;;7.43;95.50
7832;BME280;3961;42.058;25.586;2023-11-19T05:35:31;100224.72;;;7.53;96.21
7832;BME280;3961;42.058;25.586;2023-11-19T05:37:57;100226.16;;;7.49;96.57
7832;BME280;3961;42.058;25.586;2023-11-19T05:40:23;100245.75;;;7.44;96.64
7832;BME280;3961;42.058;25.586;2023-11-19T05:42:48;100247.63;;;7.44;96.63
7832;BME280;3961;42.058;25.586;2023-11-19T05:45:14;100257.44;;;7.45;96.33
7832;BME280;3961;42.058;25.586;2023-11-19T05:47:41;100228.16;;;7.34;96.45
7832;BME280;3961;42.058;25.586;2023-11-19T05:50:06;100257.91;;;7.27;96.86
7832;BME280;3961;42.058;25.586;2023-11-19T05:52:32;100251.00;;;7.25;96.72
7832;BME280;3961;42.058;25.586;2023-11-19T05:55:02;100269.78;;;7.26;96.90
7832;BME280;3961;42.058;25.586;2023-11-19T05:57:35;100262.25;;;7.21;97.42
7832;BME280;3961;42.058;25.586;2023-11-19T06:00:01;100269.66;;;7.34;96.93
7832;BME280;3961;42.058;25.586;2023-11-19T06:02:26;100279.91;;;7.39;96.60
7832;BME280;3961;42.058;25.586;2023-11-19T06:04:53;100280.34;;;7.42;96.33
7832;BME280;3961;42.058;25.586;2023-11-19T06:07:18;100272.22;;;7.42;95.67
7832;BME280;3961;42.058;25.586;2023-11-19T06:09:45;100286.09;;;7.54;95.14
7832;BME280;3961;42.058;25.586;2023-11-19T06:12:10;100290.25;;;7.56;95.16
7832;BME280;3961;42.058;25.586;2023-11-19T06:14:36;100286.56;;;7.64;95.01
7832;BME280;3961;42.058;25.586;2023-11-19T06:17:01;100288.78;;;7.54;94.65
7832;BME280;3961;42.058;25.586;2023-11-19T06:19:27;100272.53;;;7.54;95.26
7832;BME280;3961;42.058;25.586;2023-11-19T06:21:53;100287.25;;;7.73;94.68
7832;BME280;3961;42.058;25.586;2023-11-19T06:24:19;100277.69;;;7.77;93.87
7832;BME280;3961;42.058;25.586;2023-11-19T06:26:45;100289.22;;;7.85;94.14
7832;BME280;3961;42.058;25.586;2023-11-19T06:29:10;100297.16;;;7.87;93.61
7832;BME280;3961;42.058;25.586;2023-11-19T06:31:35;100303.47;;;7.94;92.71
7832;BME280;3961;42.058;25.586;2023-11-19T06:34:02;100301.22;;;8.04;92.88
7832;BME280;3961;42.058;25.586;2023-11-19T06:36:27;100290.41;;;8.11;92.51
7832;BME280;3961;42.058;25.586;2023-11-19T06:38:53;100301.97;;;8.19;91.62
7832;BME280;3961;42.058;25.586;2023-11-19T06:41:18;100299.47;;;8.24;92.00
7832;BME280;3961;42.058;25.586;2023-11-19T06:43:44;100303.53;;;8.35;92.21
7832;BME280;3961;42.058;25.586;2023-11-19T06:46:18;100289.75;;;8.43;91.56
7832;BME280;3961;42.058;25.586;2023-11-19T06:48:44;100308.63;;;8.58;91.34
7832;BME280;3961;42.058;25.586;2023-11-19T06:51:11;100310.25;;;8.52;91.63
7832;BME280;3961;42.058;25.586;2023-11-19T06:53:36;100304.00;;;8.52;90.87
7832;BME280;3961;42.058;25.586;2023-11-19T06:56:02;100310.91;;;8.54;90.43
7832;BME280;3961;42.058;25.586;2023-11-19T06:58:37;100313.84;;;8.59;89.83
7832;BME280;3961;42.058;25.586;2023-11-19T07:01:06;100317.00;;;8.63;90.69
7832;BME280;3961;42.058;25.586;2023-11-19T07:03:32;100326.00;;;8.63;89.85
7832;BME280;3961;42.058;25.586;2023-11-19T07:05:59;100332.78;;;8.87;90.64
7832;BME280;3961;42.058;25.586;2023-11-19T07:08:25;100346.56;;;8.85;89.08
7832;BME280;3961;42.058;25.586;2023-11-19T07:10:52;100332.75;;;8.80;86.95
7832;BME280;3961;42.058;25.586;2023-11-19T07:13:18;100326.22;;;8.68;87.57
7832;BME280;3961;42.058;25.586;2023-11-19T07:15:44;100314.34;;;8.76;88.77
7832;BME280;3961;42.058;25.586;2023-11-19T07:18:10;100318.75;;;8.90;88.89
7832;BME280;3961;42.058;25.586;2023-11-19T07:20:37;100319.66;;;9.04;86.50
7832;BME280;3961;42.058;25.586;2023-11-19T07:23:04;100318.41;;;9.13;86.14
7832;BME280;3961;42.058;25.586;2023-11-19T07:25:29;100336.00;;;9.30;86.68
7832;BME280;3961;42.058;25.586;2023-11-19T07:27:55;100330.16;;;9.59;85.65
7832;BME280;3961;42.058;25.586;2023-11-19T07:30:22;100323.69;;;9.67;85.02
7832;BME280;3961;42.058;25.586;2023-11-19T07:32:48;100320.31;;;9.65;84.00
7832;BME280;3961;42.058;25.586;2023-11-19T07:35:14;100315.03;;;9.90;84.23
7832;BME280;3961;42.058;25.586;2023-11-19T07:37:41;100320.09;;;9.93;84.39
7832;BME280;3961;42.058;25.586;2023-11-19T07:40:08;100313.97;;;10.10;83.14
7832;BME280;3961;42.058;25.586;2023-11-19T07:42:34;100302.47;;;10.08;81.75
7832;BME280;3961;42.058;25.586;2023-11-19T07:44:59;100314.59;;;10.06;83.53
7832;BME280;3961;42.058;25.586;2023-11-19T07:47:25;100315.25;;;10.01;82.54
7832;BME280;3961;42.058;25.586;2023-11-19T07:49:50;100330.34;;;10.04;81.98
7832;BME280;3961;42.058;25.586;2023-11-19T07:52:16;100324.00;;;10.10;81.59
7832;BME280;3961;42.058;25.586;2023-11-19T07:54:42;100322.13;;;10.30;81.68
7832;BME280;3961;42.058;25.586;2023-11-19T07:57:07;100333.63;;;10.45;81.24
7832;BME280;3961;42.058;25.586;2023-11-19T07:59:33;100344.06;;;10.48;80.50
7832;BME280;3961;42.058;25.586;2023-11-19T08:01:58;100348.38;;;10.69;80.33
7832;BME280;3961;42.058;25.586;2023-11-19T08:04:24;100355.44;;;10.90;79.24
7832;BME280;3961;42.058;25.586;2023-11-19T08:06:50;100361.72;;;10.90;78.88
7832;BME280;3961;42.058;25.586;2023-11-19T08:09:16;100344.31;;;10.91;77.98
7832;BME280;3961;42.058;25.586;2023-11-19T08:11:42;100352.31;;;10.86;78.23
7832;BME280;3961;42.058;25.586;2023-11-19T08:14:08;100350.97;;;11.02;77.50
7832;BME280;3961;42.058;25.586;2023-11-19T08:16:34;100358.84;;;11.17;76.61
7832;BME280;3961;42.058;25.586;2023-11-19T08:18:59;100348.03;;;11.35;76.06
7832;BME280;3961;42.058;25.586;2023-11-19T08:21:25;100305.97;;;11.18;75.48
7832;BME280;3961;42.058;25.586;2023-11-19T08:23:52;100358.19;;;11.21;74.95
7832;BME280;3961;42.058;25.586;2023-11-19T08:26:18;100365.13;;;11.24;75.42
7832;BME280;3961;42.058;25.586;2023-11-19T08:28:43;100357.63;;;11.13;75.96
7832;BME280;3961;42.058;25.586;2023-11-19T08:31:09;100366.97;;;11.30;74.69
7832;BME280;3961;42.058;25.586;2023-11-19T08:33:34;100360.03;;;11.27;75.45
7832;BME280;3961;42.058;25.586;2023-11-19T08:36:01;100352.91;;;11.26;76.08
7832;BME280;3961;42.058;25.586;2023-11-19T08:38:26;100362.25;;;11.43;74.70
7832;BME280;3961;42.058;25.586;2023-11-19T08:40:52;100353.09;;;11.63;75.44
7832;BME280;3961;42.058;25.586;2023-11-19T08:43:17;100354.69;;;11.70;74.69
7832;BME280;3961;42.058;25.586;2023-11-19T08:45:43;100358.81;;;11.86;73.21
7832;BME280;3961;42.058;25.586;2023-11-19T08:48:09;100357.69;;;11.94;73.29
7832;BME280;3961;42.058;25.586;2023-11-19T08:50:34;100363.72;;;11.77;70.27
7832;BME280;3961;42.058;25.586;2023-11-19T08:53:00;100350.66;;;11.79;69.39
7832;BME280;3961;42.058;25.586;2023-11-19T08:55:25;100364.06;;;11.88;69.17
7832;BME280;3961;42.058;25.586;2023-11-19T08:57:51;100370.69;;;12.16;68.98
7832;BME280;3961;42.058;25.586;2023-11-19T09:00:17;100384.53;;;12.21;68.46
7832;BME280;3961;42.058;25.586;2023-11-19T09:02:43;100390.69;;;11.92;68.89
7832;BME280;3961;42.058;25.586;2023-11-19T09:05:08;100374.63;;;11.77;68.01
7832;BME280;3961;42.058;25.586;2023-11-19T09:07:34;100377.97;;;11.79;69.30
7832;BME280;3961;42.058;25.586;2023-11-19T09:09:59;100385.53;;;11.84;66.53
7832;BME280;3961;42.058;25.586;2023-11-19T09:12:25;100377.34;;;12.02;66.94
7832;BME280;3961;42.058;25.586;2023-11-19T09:14:51;100379.56;;;12.12;67.04
7832;BME280;3961;42.058;25.586;2023-11-19T09:17:16;100375.09;;;12.17;66.26
7832;BME280;3961;42.058;25.586;2023-11-19T09:19:43;100351.16;;;11.63;65.87
7832;BME280;3961;42.058;25.586;2023-11-19T09:22:08;100362.03;;;11.76;66.03
7832;BME280;3961;42.058;25.586;2023-11-19T09:24:34;100359.00;;;11.84;65.26
7832;BME280;3961;42.058;25.586;2023-11-19T09:27:00;100351.31;;;11.75;64.43
7832;BME280;3961;42.058;25.586;2023-11-19T09:29:25;100343.19;;;11.68;65.25
7832;BME280;3961;42.058;25.586;2023-11-19T09:31:51;100340.44;;;11.68;65.81
7832;BME280;3961;42.058;25.586;2023-11-19T09:34:17;100328.81;;;11.79;67.54
7832;BME280;3961;42.058;25.586;2023-11-19T09:36:42;100310.53;;;12.05;66.38
7832;BME280;3961;42.058;25.586;2023-11-19T09:39:12;100323.72;;;12.08;63.26
7832;BME280;3961;42.058;25.586;2023-11-19T09:41:45;100338.00;;;12.10;63.23
7832;BME280;3961;42.058;25.586;2023-11-19T09:44:11;100333.97;;;12.12;62.79
7832;BME280;3961;42.058;25.586;2023-11-19T09:46:38;100336.16;;;12.04;63.12
7832;BME280;3961;42.058;25.586;2023-11-19T09:49:08;100340.63;;;12.16;61.89
7832;BME280;3961;42.058;25.586;2023-11-19T09:51:36;100329.34;;;12.13;60.99
7832;BME280;3961;42.058;25.586;2023-11-19T09:54:02;100347.78;;;12.17;60.63
7832;BME280;3961;42.058;25.586;2023-11-19T09:56:30;100344.63;;;12.20;60.34
7832;BME280;3961;42.058;25.586;2023-11-19T09:58:56;100350.00;;;12.27;60.59
7832;BME280;3961;42.058;25.586;2023-11-19T10:01:22;100353.56;;;12.27;59.59
7832;BME280;3961;42.058;25.586;2023-11-19T10:03:47;100358.03;;;12.22;59.75
7832;BME280;3961;42.058;25.586;2023-11-19T10:06:15;100342.56;;;12.34;60.89
7832;BME280;3961;42.058;25.586;2023-11-19T10:08:41;100358.91;;;12.41;61.31
7832;BME280;3961;42.058;25.586;2023-11-19T10:11:08;100343.00;;;12.13;59.75
7832;BME280;3961;42.058;25.586;2023-11-19T10:13:35;100311.63;;;11.97;61.59
7832;BME280;3961;42.058;25.586;2023-11-19T10:16:08;100325.19;;;12.10;61.35
7832;BME280;3961;42.058;25.586;2023-11-19T10:18:34;100329.88;;;12.21;61.23
7832;BME280;3961;42.058;25.586;2023-11-19T10:21:06;100326.22;;;12.09;60.39
7832;BME280;3961;42.058;25.586;2023-11-19T10:23:54;100324.75;;;12.07;61.58
7832;BME280;3961;42.058;25.586;2023-11-19T10:26:22;100327.50;;;12.07;60.50
7832;BME280;3961;42.058;25.586;2023-11-19T10:28:48;100330.00;;;12.08;61.11
7832;BME280;3961;42.058;25.586;2023-11-19T10:31:14;100330.38;;;12.12;61.03
7832;BME280;3961;42.058;25.586;2023-11-19T10:33:40;100325.81;;;12.06;61.18
7832;BME280;3961;42.058;25.586;2023-11-19T10:36:06;100328.81;;;12.04;60.69
7832;BME280;3961;42.058;25.586;2023-11-19T10:38:32;100315.72;;;11.88;59.58
7832;BME280;3961;42.058;25.586;2023-11-19T10:40:58;100349.69;;;12.17;60.46
7832;BME280;3961;42.058;25.586;2023-11-19T10:43:24;100344.34;;;12.04;60.33
7832;BME280;3961;42.058;25.586;2023-11-19T10:45:51;100323.03;;;11.94;60.03
7832;BME280;3961;42.058;25.586;2023-11-19T10:48:17;100350.91;;;12.21;61.00
7832;BME280;3961;42.058;25.586;2023-11-19T10:50:45;100341.78;;;12.09;59.20
7832;BME280;3961;42.058;25.586;2023-11-19T10:53:12;100346.34;;;12.33;58.89
7832;BME280;3961;42.058;25.586;2023-11-19T10:55:39;100333.00;;;12.25;54.82
7832;BME280;3961;42.058;25.586;2023-11-19T10:58:07;100330.72;;;12.40;53.45
7832;BME280;3961;42.058;25.586;2023-11-19T11:03:18;100330.66;;;12.47;54.40
7832;BME280;3961;42.058;25.586;2023-11-19T11:05:48;100336.94;;;12.65;54.64
7832;BME280;3961;42.058;25.586;2023-11-19T11:08:14;100340.59;;;12.59;52.18
7832;BME280;3961;42.058;25.586;2023-11-19T11:10:43;100330.88;;;12.45;52.89
7832;BME280;3961;42.058;25.586;2023-11-19T11:13:10;100330.97;;;12.57;53.30
7832;BME280;3961;42.058;25.586;2023-11-19T11:15:37;100327.66;;;12.48;52.78
7832;BME280;3961;42.058;25.586;2023-11-19T11:18:05;100321.00;;;12.44;52.42
7832;BME280;3961;42.058;25.586;2023-11-19T11:20:33;100311.97;;;12.44;52.03
7832;BME280;3961;42.058;25.586;2023-11-19T11:23:37;100313.34;;;12.53;53.74
7832;BME280;3961;42.058;25.586;2023-11-19T11:26:41;100321.38;;;12.48;53.67
7832;BME280;3961;42.058;25.586;2023-11-19T11:32:10;100325.94;;;12.54;53.33
7832;BME280;3961;42.058;25.586;2023-11-19T11:35:08;100326.31;;;12.57;53.13
7832;BME280;3961;42.058;25.586;2023-11-19T11:37:44;100322.13;;;12.55;51.97
7832;BME280;3961;42.058;25.586;2023-11-19T11:40:17;100330.72;;;12.58;52.41
7832;BME280;3961;42.058;25.586;2023-11-19T11:42:46;100321.28;;;12.54;50.79
7832;BME280;3961;42.058;25.586;2023-11-19T11:45:14;100334.38;;;12.52;51.62
7832;BME280;3961;42.058;25.586;2023-11-19T11:50:10;100314.31;;;12.40;53.00
7832;BME280;3961;42.058;25.586;2023-11-19T11:55:37;100316.53;;;12.50;52.82
7832;BME280;3961;42.058;25.586;2023-11-19T11:58:31;100311.06;;;12.50;53.44
7832;BME280;3961;42.058;25.586;2023-11-19T12:00:58;100323.66;;;12.51;52.90
7832;BME280;3961;42.058;25.586;2023-11-19T12:03:27;100324.19;;;12.59;51.50
7832;BME280;3961;42.058;25.586;2023-11-19T12:05:53;100322.47;;;12.47;50.41
7832;BME280;3961;42.058;25.586;2023-11-19T12:08:20;100310.97;;;12.38;51.88
7832;BME280;3961;42.058;25.586;2023-11-19T12:10:51;100310.06;;;12.44;51.59
7832;BME280;3961;42.058;25.586;2023-11-19T12:13:19;100276.81;;;12.29;51.32
7832;BME280;3961;42.058;25.586;2023-11-19T12:18:29;100284.47;;;12.57;51.58
7832;BME280;3961;42.058;25.586;2023-11-19T12:20:59;100260.38;;;12.65;52.08
7832;BME280;3961;42.058;25.586;2023-11-19T12:23:27;100272.69;;;12.56;51.46
7832;BME280;3961;42.058;25.586;2023-11-19T12:25:54;100281.47;;;12.58;50.40
7832;BME280;3961;42.058;25.586;2023-11-19T12:28:20;100249.75;;;12.57;50.59
7832;BME280;3961;42.058;25.586;2023-11-19T12:30:46;100275.50;;;12.68;50.80
7832;BME280;3961;42.058;25.586;2023-11-19T12:33:15;100262.19;;;12.53;49.69
7832;BME280;3961;42.058;25.586;2023-11-19T12:35:45;100269.91;;;12.45;49.75
7832;BME280;3961;42.058;25.586;2023-11-19T12:38:25;100266.84;;;12.16;50.47
7832;BME280;3961;42.058;25.586;2023-11-19T12:41:07;100264.66;;;12.07;50.32
7832;BME280;3961;42.058;25.586;2023-11-19T12:43:36;100275.53;;;12.13;51.47
7832;BME280;3961;42.058;25.586;2023-11-19T12:46:16;100268.69;;;12.22;52.31
7832;BME280;3961;42.058;25.586;2023-11-19T12:48:42;100266.66;;;12.36;50.96
7832;BME280;3961;42.058;25.586;2023-11-19T12:51:07;100270.38;;;12.42;51.54
7832;BME280;3961;42.058;25.586;2023-11-19T12:53:47;100268.31;;;12.19;51.16
7832;BME280;3961;42.058;25.586;2023-11-19T12:56:14;100263.47;;;12.21;50.93
7832;BME280;3961;42.058;25.586;2023-11-19T12:58:41;100265.81;;;12.36;51.37
7832;BME280;3961;42.058;25.586;2023-11-19T13:01:08;100273.88;;;12.31;51.60
7832;BME280;3961;42.058;25.586;2023-11-19T13:03:36;100253.34;;;12.21;51.70
7832;BME280;3961;42.058;25.586;2023-11-19T13:06:08;100267.38;;;12.43;51.30
7832;BME280;3961;42.058;25.586;2023-11-19T13:08:44;100260.19;;;12.31;51.33
7832;BME280;3961;42.058;25.586;2023-11-19T13:11:10;100252.72;;;12.38;51.11
7832;BME280;3961;42.058;25.586;2023-11-19T13:13:59;100247.22;;;12.08;50.34
7832;BME280;3961;42.058;25.586;2023-11-19T13:16:25;100251.16;;;12.12;50.20
7832;BME280;3961;42.058;25.586;2023-11-19T13:18:51;100247.03;;;11.84;50.86
7832;BME280;3961;42.058;25.586;2023-11-19T13:21:17;100249.38;;;11.81;51.95